Time;durP1;ratioP1;P1;durP2;ratioP2;P2;SDS_P1;SDS_P2;PMS_P1;PMS_P2;Temp;Humidity;BMP_temperature;BMP_pressure;BME280_temperature;BME280_humidity;BME280_pressure;Samples;Min_cycle;Max_cycle;Signal;HPM_P1;HPM_P2
2020/12/28 00:01:42;;;;;;;19.60;6.42;;;;;;;9.48;70.69;101962.69;1812963;77;21154;-46
2020/12/28 00:04:11;;;;;;;20.97;6.25;;;;;;;9.48;70.69;101971.78;1809339;77;21230;-47
2020/12/28 00:06:41;;;;;;;18.85;6.25;;;;;;;9.48;70.79;101966.58;1800323;78;21180;-47
2020/12/28 00:09:11;;;;;;;16.35;5.10;;;;;;;9.47;70.86;101967.47;1737638;80;21132;-47
2020/12/28 00:11:41;;;;;;;13.18;5.22;;;;;;;9.47;70.86;101976.98;1776743;80;21302;-47
2020/12/28 00:14:09;;;;;;;20.72;5.90;;;;;;;9.47;70.82;101977.86;1755638;80;21141;-47
2020/12/28 00:16:37;;;;;;;15.68;5.58;;;;;;;9.47;70.83;101972.66;1762801;80;21141;-47
2020/12/28 00:19:07;;;;;;;13.48;5.30;;;;;;;9.46;70.88;101965.72;1758983;80;21163;-47
2020/12/28 00:21:35;;;;;;;19.12;5.28;;;;;;;9.47;70.91;101970.06;1830759;77;21132;-47
2020/12/28 00:24:04;;;;;;;17.27;5.65;;;;;;;9.44;70.95;101964.84;1814821;77;21313;-47
2020/12/28 00:26:42;;;;;;;17.37;6.28;;;;;;;9.44;71.01;101957.05;1811966;78;21303;-47
2020/12/28 00:29:13;;;;;;;15.28;5.58;;;;;;;9.43;71.12;101944.06;1735396;80;21172;-48
2020/12/28 00:31:42;;;;;;;13.40;5.22;;;;;;;9.42;71.22;101949.69;1754834;81;21608;-47
2020/12/28 00:34:11;;;;;;;17.87;6.75;;;;;;;9.38;71.53;101932.36;1746776;80;21738;-48
2020/12/28 00:36:40;;;;;;;16.17;5.87;;;;;;;9.36;71.69;101923.70;1738631;80;21600;-47
2020/12/28 00:39:09;;;;;;;17.05;6.58;;;;;;;9.38;71.77;101934.96;1731715;81;21203;-47
2020/12/28 00:41:37;;;;;;;15.68;5.35;;;;;;;9.38;71.97;101932.79;1739167;81;21314;-47
2020/12/28 00:44:05;;;;;;;14.38;5.97;;;;;;;9.39;72.01;101938.02;1756048;80;21239;-47
2020/12/28 00:46:34;;;;;;;13.30;5.90;;;;;;;9.39;72.02;101927.62;1751558;81;21168;-47
2020/12/28 00:49:02;;;;;;;16.48;6.05;;;;;;;9.39;72.20;101932.81;1760387;80;21342;-47
2020/12/28 00:51:31;;;;;;;14.13;5.87;;;;;;;9.39;72.34;101917.23;1758676;81;21323;-48
2020/12/28 00:54:00;;;;;;;14.25;5.95;;;;;;;9.39;72.37;101911.16;1750414;81;21461;-47
2020/12/28 00:56:28;;;;;;;15.63;5.95;;;;;;;9.38;72.52;101918.08;1735614;80;21317;-47
2020/12/28 00:58:57;;;;;;;18.07;6.70;;;;;;;9.41;72.48;101923.30;1750210;80;21168;-47
2020/12/28 01:01:26;;;;;;;22.00;6.67;;;;;;;9.41;72.57;101910.30;1737090;80;21168;-47
2020/12/28 01:03:56;;;;;;;21.33;6.35;;;;;;;9.43;72.53;101911.17;1739418;80;21217;-47
2020/12/28 01:06:34;;;;;;;19.23;6.85;;;;;;;9.48;72.59;101910.73;1771503;79;22980;-46
2020/12/28 01:09:04;;;;;;;15.95;6.30;;;;;;;9.44;72.58;101911.59;1737685;82;21592;-46
2020/12/28 01:11:33;;;;;;;16.95;6.75;;;;;;;9.44;72.66;101910.72;1734305;82;21121;-46
2020/12/28 01:14:01;;;;;;;17.87;6.53;;;;;;;9.46;72.67;101903.82;1739957;82;21137;-48
2020/12/28 01:16:30;;;;;;;21.15;5.85;;;;;;;9.48;72.64;101901.63;1738134;82;21141;-46
2020/12/28 01:18:58;;;;;;;18.57;6.78;;;;;;;9.46;72.79;101882.58;1737789;82;21176;-46
2020/12/28 01:21:28;;;;;;;16.93;6.85;;;;;;;9.47;72.95;101881.73;1727989;82;21141;-47
2020/12/28 01:23:58;;;;;;;19.67;7.28;;;;;;;9.46;73.03;101883.04;1734218;82;21145;-46
2020/12/28 01:26:28;;;;;;;16.93;6.37;;;;;;;9.47;73.15;101873.06;1741144;82;21152;-46
2020/12/28 01:28:58;;;;;;;22.58;7.15;;;;;;;9.48;73.10;101866.56;1737649;82;21176;-47
2020/12/28 01:31:28;;;;;;;15.95;7.30;;;;;;;9.48;73.11;101856.17;1738462;82;21177;-47
2020/12/28 01:34:05;;;;;;;19.30;7.47;;;;;;;9.47;73.31;101853.58;1745718;82;21318;-47
2020/12/28 01:36:42;;;;;;;27.42;7.35;;;;;;;9.53;73.39;101854.88;1771392;79;23077;-47
2020/12/28 01:39:16;;;;;;;19.50;7.30;;;;;;;9.50;73.40;101857.49;1734998;82;21192;-47
2020/12/28 01:41:44;;;;;;;19.30;7.62;;;;;;;9.50;73.35;101854.44;1737251;82;21143;-47
2020/12/28 01:44:12;;;;;;;20.27;7.55;;;;;;;9.52;73.32;101858.36;1741067;82;21157;-48
2020/12/28 01:46:42;;;;;;;22.93;7.33;;;;;;;9.53;73.45;101853.58;1733458;82;21169;-47
2020/12/28 01:49:11;;;;;;;17.90;7.17;;;;;;;9.54;73.56;101844.47;1744622;82;21529;-47
2020/12/28 01:51:43;;;;;;;22.10;7.85;;;;;;;9.56;73.58;101841.90;1730733;82;21145;-48
2020/12/28 01:54:11;;;;;;;31.85;8.58;;;;;;;9.58;73.62;101837.56;1703324;82;21675;-48
2020/12/28 01:56:42;;;;;;;17.57;7.45;;;;;;;9.60;73.60;101831.48;1724968;82;21156;-47
2020/12/28 01:59:11;;;;;;;20.00;8.40;;;;;;;9.61;73.67;101822.83;1735671;82;21564;-47
2020/12/28 02:01:42;;;;;;;28.00;8.50;;;;;;;9.64;73.58;101811.58;1743221;81;21168;-48
2020/12/28 02:04:12;;;;;;;22.17;9.08;;;;;;;9.64;73.48;101804.62;1732266;82;21152;-47
2020/12/28 02:06:52;;;;;;;23.10;8.55;;;;;;;9.63;73.47;101815.90;1740283;82;21153;-47
2020/12/28 02:09:21;;;;;;;19.10;8.75;;;;;;;9.64;73.53;101816.31;1718842;82;21156;-47
2020/12/28 02:11:51;;;;;;;23.02;7.87;;;;;;;9.65;73.57;101810.27;1734036;82;21180;-47
2020/12/28 02:14:20;;;;;;;22.25;8.88;;;;;;;9.67;73.63;101806.36;1740369;82;21302;-47
2020/12/28 02:16:59;;;;;;;21.65;8.15;;;;;;;9.74;73.54;101806.80;1771630;79;22923;-47
2020/12/28 02:19:29;;;;;;;18.65;7.87;;;;;;;9.69;73.37;101800.30;1738459;82;21132;-46
2020/12/28 02:21:59;;;;;;;20.92;7.95;;;;;;;9.70;73.38;101804.64;1735937;82;21097;-47
2020/12/28 02:24:29;;;;;;;20.40;7.97;;;;;;;9.70;73.39;101808.54;1737939;82;21144;-47
2020/12/28 02:27:00;;;;;;;20.72;9.13;;;;;;;9.71;73.39;101819.34;1736559;82;21169;-47
2020/12/28 02:29:29;;;;;;;19.60;8.38;;;;;;;9.74;73.27;101808.09;1735748;82;21576;-46
2020/12/28 02:31:59;;;;;;;26.55;9.43;;;;;;;9.76;73.12;101798.55;1738599;81;21168;-47
2020/12/28 02:34:34;;;;;;;19.17;8.63;;;;;;;9.77;73.06;101782.95;1746289;82;21245;-47
2020/12/28 02:37:03;;;;;;;15.63;7.35;;;;;;;9.76;73.05;101781.23;1744362;82;21144;-47
2020/12/28 02:39:33;;;;;;;26.40;10.40;;;;;;;9.76;72.96;101783.84;1741594;82;21168;-47
2020/12/28 02:42:02;;;;;;;19.25;8.53;;;;;;;9.76;72.91;101796.83;1739061;82;21144;-47
2020/12/28 02:44:49;;;;;;;25.08;9.78;;;;;;;9.76;72.96;101786.86;1743640;82;21155;-47
2020/12/28 02:47:35;;;;;;;16.35;7.97;;;;;;;9.78;72.96;101779.92;1743649;82;21168;-48
2020/12/28 02:50:21;;;;;;;20.62;9.68;;;;;;;9.77;73.02;101780.34;1739424;82;21176;-47
2020/12/28 02:53:08;;;;;;;25.15;9.28;;;;;;;9.76;73.03;101777.77;1745170;82;21172;-48
2020/12/28 02:55:54;;;;;;;21.85;9.25;;;;;;;9.76;73.12;101778.64;1738351;82;21591;-48
2020/12/28 02:58:40;;;;;;;23.65;8.83;;;;;;;9.76;73.01;101770.84;1736452;82;21175;-48
2020/12/28 03:01:20;;;;;;;17.92;8.55;;;;;;;9.84;72.98;101770.81;1810178;79;23309;-48
2020/12/28 03:04:07;;;;;;;17.62;9.25;;;;;;;9.81;73.04;101779.47;1777779;80;21160;-48
2020/12/28 03:06:54;;;;;;;18.70;9.23;;;;;;;9.82;72.97;101778.62;1778033;80;21278;-47
2020/12/28 03:09:40;;;;;;;19.98;9.00;;;;;;;9.82;72.97;101778.62;1776712;80;21152;-48
2020/12/28 03:12:27;;;;;;;21.90;9.45;;;;;;;9.83;72.93;101762.14;1773476;80;21191;-47
2020/12/28 03:15:19;;;;;;;24.95;10.08;;;;;;;9.89;72.95;101763.00;1810277;79;22840;-47
2020/12/28 03:18:07;;;;;;;16.07;8.30;;;;;;;9.83;72.96;101756.94;1778450;80;21152;-47
2020/12/28 03:20:55;;;;;;;19.00;8.83;;;;;;;9.84;73.03;101754.78;1763118;80;21596;-47
2020/12/28 03:23:42;;;;;;;21.70;11.03;;;;;;;9.85;72.97;101737.00;1787409;80;21136;-48
2020/12/28 03:26:30;;;;;;;22.27;10.10;;;;;;;9.84;72.87;101739.19;1780233;80;21140;-47
2020/12/28 03:29:19;;;;;;;21.55;10.13;;;;;;;9.83;72.77;101746.54;1773762;80;21283;-47
2020/12/28 03:32:06;;;;;;;21.55;9.68;;;;;;;9.80;72.97;101762.16;1773101;80;21155;-47
2020/12/28 03:34:53;;;;;;;25.82;11.05;;;;;;;9.82;72.97;101769.95;1774818;80;21192;-46
2020/12/28 03:37:39;;;;;;;22.87;10.43;;;;;;;9.88;72.82;101756.93;1779255;80;21180;-48
2020/12/28 03:40:17;;;;;;;16.75;9.73;;;;;;;9.93;72.67;101749.13;1792349;79;28225;-48
2020/12/28 03:43:03;;;;;;;16.50;10.15;;;;;;;9.94;72.72;101761.23;1771901;80;21152;-48
2020/12/28 03:45:50;;;;;;;22.02;9.78;;;;;;;9.98;72.65;101767.73;1771630;80;21143;-47
2020/12/28 03:48:36;;;;;;;17.57;10.53;;;;;;;9.97;72.69;101766.44;1771843;80;21166;-47
2020/12/28 03:51:22;;;;;;;26.45;10.43;;;;;;;9.97;72.68;101764.72;1764855;80;21595;-47
2020/12/28 03:54:09;;;;;;;18.17;10.70;;;;;;;9.99;72.64;101762.10;1778198;80;21136;-47
2020/12/28 03:56:55;;;;;;;21.07;10.25;;;;;;;10.00;72.73;101772.91;1778373;80;21142;-47
2020/12/28 03:59:42;;;;;;;19.07;9.30;;;;;;;10.01;72.58;101769.46;1775138;80;21144;-46
2020/12/28 04:02:30;;;;;;;27.50;10.45;;;;;;;10.01;72.57;101764.26;1775108;80;21167;-47
2020/12/28 04:05:16;;;;;;;20.48;10.15;;;;;;;10.06;72.46;101766.39;1763087;79;23094;-46
2020/12/28 04:08:06;;;;;;;27.13;10.43;;;;;;;10.04;72.42;101769.43;1737305;82;21299;-47
2020/12/28 04:10:50;;;;;;;19.37;10.63;;;;;;;10.06;72.35;101770.29;1743648;82;21687;-47
2020/12/28 04:13:23;;;;;;;21.02;9.83;;;;;;;10.03;72.49;101770.32;1738966;82;21302;-46
2020/12/28 04:15:53;;;;;;;20.97;9.35;;;;;;;10.01;72.58;101770.77;1735630;82;21124;-47
2020/12/28 04:18:21;;;;;;;24.15;10.80;;;;;;;10.02;72.63;101768.58;1743380;82;21156;-47
2020/12/28 04:20:49;;;;;;;19.32;8.73;;;;;;;10.02;72.61;101768.58;1725545;82;21172;-46
2020/12/28 04:23:18;;;;;;;19.50;9.80;;;;;;;10.02;72.70;101763.38;1737822;82;21160;-47
2020/12/28 04:25:46;;;;;;;15.15;8.90;;;;;;;10.02;72.72;101760.34;1737069;82;21278;-48
2020/12/28 04:28:14;;;;;;;19.10;9.73;;;;;;;10.02;72.66;101756.45;1736411;82;21169;-46
2020/12/28 04:30:42;;;;;;;22.00;9.63;;;;;;;10.03;72.57;101754.30;1742247;82;21326;-46
2020/12/28 04:33:10;;;;;;;25.05;10.15;;;;;;;10.03;72.59;101741.72;1732036;82;21318;-47
2020/12/28 04:35:39;;;;;;;22.48;10.00;;;;;;;10.03;72.66;101740.42;1738195;82;21139;-48
2020/12/28 04:38:08;;;;;;;25.45;11.97;;;;;;;10.04;72.73;101740.41;1734429;82;21314;-47
2020/12/28 04:40:37;;;;;;;22.60;10.05;;;;;;;10.08;72.59;101742.55;1740159;82;21141;-47
2020/12/28 04:43:11;;;;;;;18.10;9.90;;;;;;;10.08;72.43;101739.52;1738814;82;21140;-47
2020/12/28 04:45:40;;;;;;;19.10;8.48;;;;;;;10.07;72.51;101727.83;1736276;82;21133;-47
2020/12/28 04:48:09;;;;;;;20.65;9.85;;;;;;;10.03;72.57;101724.39;1735042;82;21179;-47
2020/12/28 04:50:38;;;;;;;24.43;11.88;;;;;;;10.01;72.73;101723.95;1739592;82;21176;-47
2020/12/28 04:53:06;;;;;;;22.87;10.15;;;;;;;10.00;72.82;101719.61;1737664;82;21149;-46
2020/12/28 04:55:34;;;;;;;20.65;9.60;;;;;;;9.99;72.85;101731.77;1747991;82;21302;-47
2020/12/28 04:58:02;;;;;;;23.35;11.08;;;;;;;9.99;72.95;101733.50;1740041;82;21168;-47
2020/12/28 05:00:32;;;;;;;23.75;11.03;;;;;;;9.99;73.09;101729.60;1738156;82;21354;-47
2020/12/28 05:03:00;;;;;;;26.25;13.53;;;;;;;10.01;73.11;101726.56;1738371;82;21172;-47
2020/12/28 05:05:29;;;;;;;26.65;11.65;;;;;;;10.03;72.97;101719.61;1723805;82;21319;-47
2020/12/28 05:07:57;;;;;;;21.62;10.60;;;;;;;10.06;72.85;101728.69;1729035;82;21137;-47
2020/12/28 05:10:26;;;;;;;23.42;11.35;;;;;;;10.08;72.81;101733.44;1721128;82;21298;-47
2020/12/28 05:12:55;;;;;;;21.68;11.22;;;;;;;10.08;72.82;101724.34;1731469;82;21153;-47
2020/12/28 05:15:23;;;;;;;24.10;11.65;;;;;;;10.08;72.85;101743.84;1725543;82;21149;-48
2020/12/28 05:17:53;;;;;;;25.90;11.80;;;;;;;10.09;72.76;101753.39;1720478;82;21188;-48
2020/12/28 05:20:24;;;;;;;31.42;12.95;;;;;;;10.09;72.72;101758.59;1736597;82;21177;-48
2020/12/28 05:22:54;;;;;;;25.95;11.90;;;;;;;10.09;72.79;101750.80;1723290;82;21212;-47
2020/12/28 05:25:23;;;;;;;21.68;12.23;;;;;;;10.11;72.82;101751.69;1728578;82;21145;-48
2020/12/28 05:27:52;;;;;;;26.27;12.28;;;;;;;10.13;72.82;101747.34;1718697;82;21141;-47
2020/12/28 05:30:20;;;;;;;23.05;11.63;;;;;;;10.13;72.82;101733.91;1690406;82;21403;-47
2020/12/28 05:32:49;;;;;;;21.40;11.28;;;;;;;10.12;72.83;101727.42;1730994;82;21291;-47
2020/12/28 05:35:17;;;;;;;23.02;11.88;;;;;;;10.13;72.88;101731.73;1722730;82;21177;-47
2020/12/28 05:37:48;;;;;;;16.60;10.48;;;;;;;10.15;72.93;101726.09;1724465;82;21549;-47
2020/12/28 05:40:17;;;;;;;17.73;10.98;;;;;;;10.14;72.91;101712.67;1719342;82;21149;-47
2020/12/28 05:42:52;;;;;;;23.05;11.45;;;;;;;10.12;72.93;101705.32;1728778;82;21142;-48
2020/12/28 05:45:21;;;;;;;20.27;11.05;;;;;;;10.11;72.97;101702.27;1723688;82;21533;-47
2020/12/28 05:47:56;;;;;;;20.37;11.00;;;;;;;10.10;73.02;101720.03;1721497;82;21326;-48
2020/12/28 05:50:31;;;;;;;15.75;9.38;;;;;;;10.07;73.16;101720.03;1681644;84;21191;-47
2020/12/28 05:53:02;;;;;;;17.12;9.88;;;;;;;10.09;73.22;101706.59;1684624;84;21781;-47
2020/12/28 05:55:31;;;;;;;16.65;9.78;;;;;;;10.08;73.35;101712.64;1673455;84;21223;-48
2020/12/28 05:58:00;;;;;;;22.35;9.28;;;;;;;10.07;73.43;101731.73;1668647;85;21374;-47
2020/12/28 06:00:28;;;;;;;19.00;10.40;;;;;;;10.09;73.51;101750.80;1683533;84;21196;-47
2020/12/28 06:02:58;;;;;;;19.10;10.93;;;;;;;10.12;73.54;101744.33;1666786;85;21384;-48
2020/12/28 06:05:33;;;;;;;21.35;10.80;;;;;;;10.20;73.57;101745.16;1766498;79;23127;-46
2020/12/28 06:08:02;;;;;;;22.22;11.70;;;;;;;10.21;73.38;101734.73;1740404;82;21176;-47
2020/12/28 06:10:34;;;;;;;24.10;11.25;;;;;;;10.24;73.33;101722.16;1705438;82;21564;-47
2020/12/28 06:13:02;;;;;;;21.40;10.28;;;;;;;10.28;73.27;101716.06;1736781;82;21576;-47
2020/12/28 06:15:30;;;;;;;18.27;10.35;;;;;;;10.26;73.12;101713.91;1729929;82;21140;-47
2020/12/28 06:17:58;;;;;;;16.05;10.20;;;;;;;10.17;73.38;101708.74;1744076;82;21310;-47
2020/12/28 06:20:31;;;;;;;21.20;10.55;;;;;;;10.11;73.53;101694.47;1726700;82;21158;-47
2020/12/28 06:23:04;;;;;;;21.82;10.98;;;;;;;10.08;73.65;101681.44;1740561;82;21180;-47
2020/12/28 06:25:32;;;;;;;17.30;10.13;;;;;;;10.02;73.83;101678.87;1690471;84;21197;-47
2020/12/28 06:28:00;;;;;;;19.00;10.50;;;;;;;9.96;74.16;101694.07;1688447;84;21581;-47
2020/12/28 06:30:29;;;;;;;24.60;12.15;;;;;;;9.95;74.38;101695.39;1699559;84;21136;-47
2020/12/28 06:33:04;;;;;;;23.47;11.20;;;;;;;9.94;74.54;101678.05;1693075;84;21282;-48
2020/12/28 06:35:32;;;;;;;19.32;10.53;;;;;;;9.94;74.62;101668.94;1645777;87;21192;-48
2020/12/28 06:38:01;;;;;;;23.47;11.35;;;;;;;9.94;74.70;101667.64;1639674;87;21211;-49
2020/12/28 06:40:35;;;;;;;19.02;11.50;;;;;;;9.93;74.83;101663.33;1643491;87;21213;-47
2020/12/28 06:43:16;;;;;;;22.40;11.43;;;;;;;9.93;74.99;101658.13;1650938;87;21204;-48
2020/12/28 06:45:46;;;;;;;23.73;11.45;;;;;;;9.90;75.09;101646.43;1644154;85;21177;-48
2020/12/28 06:48:23;;;;;;;18.65;9.83;;;;;;;9.88;75.24;101657.27;1648387;85;21179;-47
2020/12/28 06:51:06;;;;;;;21.73;10.55;;;;;;;9.94;75.43;101652.05;1815944;79;23295;-47
2020/12/28 06:53:35;;;;;;;20.57;10.55;;;;;;;9.89;75.58;101652.09;1685611;84;21249;-47
2020/12/28 06:56:09;;;;;;;25.27;11.00;;;;;;;9.90;75.67;101659.44;1700845;83;21176;-46
2020/12/28 06:58:43;;;;;;;15.60;9.88;;;;;;;9.96;75.75;101665.90;1805648;79;23382;-47
2020/12/28 07:01:12;;;;;;;24.35;10.93;;;;;;;9.95;75.80;101677.19;1731817;82;21351;-47
2020/12/28 07:03:42;;;;;;;20.15;10.82;;;;;;;9.98;75.83;101680.63;1738575;81;21183;-47
2020/12/28 07:06:11;;;;;;;19.20;10.48;;;;;;;10.02;75.85;101690.56;1737113;81;21176;-47
2020/12/28 07:08:39;;;;;;;21.27;10.68;;;;;;;10.07;75.75;101682.33;1748573;81;21157;-46
2020/12/28 07:11:09;;;;;;;20.45;9.85;;;;;;;10.11;75.73;101672.37;1719680;81;21144;-46
2020/12/28 07:13:37;;;;;;;24.02;9.90;;;;;;;10.13;75.75;101661.52;1733577;81;21604;-47
2020/12/28 07:16:06;;;;;;;18.07;10.80;;;;;;;10.16;75.78;101658.92;1715082;81;21152;-47
2020/12/28 07:18:35;;;;;;;20.20;10.48;;;;;;;10.19;75.67;101657.58;1740210;81;21156;-47
2020/12/28 07:21:04;;;;;;;21.82;10.63;;;;;;;10.20;75.67;101659.33;1730374;81;21142;-47
2020/12/28 07:23:33;;;;;;;19.60;10.32;;;;;;;10.20;75.60;101651.52;1726898;83;21181;-47
2020/12/28 07:26:09;;;;;;;27.15;11.43;;;;;;;10.22;75.64;101654.52;1721233;82;21144;-48
2020/12/28 07:28:39;;;;;;;27.37;11.03;;;;;;;10.23;75.61;101648.89;1714550;83;21184;-47
2020/12/28 07:31:07;;;;;;;24.52;11.28;;;;;;;10.24;75.54;101637.63;1726672;82;21224;-47
2020/12/28 07:33:48;;;;;;;24.27;10.72;;;;;;;10.25;75.48;101633.70;1724849;82;21116;-47
2020/12/28 07:36:21;;;;;;;24.77;12.40;;;;;;;10.26;75.61;101643.22;1675916;85;21191;-47
2020/12/28 07:38:50;;;;;;;24.00;10.30;;;;;;;10.28;75.57;101649.27;1678547;84;21187;-48
2020/12/28 07:41:21;;;;;;;34.95;12.40;;;;;;;10.29;75.68;101644.94;1677451;85;21294;-47
2020/12/28 07:43:57;;;;;;;30.72;14.18;;;;;;;10.30;75.61;101647.56;1676637;85;21192;-47
2020/12/28 07:46:37;;;;;;;25.65;11.22;;;;;;;10.32;75.50;101650.14;1678788;85;21148;-48
2020/12/28 07:49:27;;;;;;;25.40;11.45;;;;;;;10.32;75.53;101645.81;1673491;85;21197;-48
2020/12/28 07:52:11;;;;;;;22.52;11.10;;;;;;;10.40;75.59;101650.95;1770779;79;22904;-47
2020/12/28 07:55:02;;;;;;;25.88;12.20;;;;;;;10.38;75.73;101660.50;1746777;82;21160;-47
2020/12/28 07:58:02;;;;;;;20.48;11.73;;;;;;;10.39;75.53;101659.61;1681629;85;21603;-47
2020/12/28 08:00:35;;;;;;;29.20;13.20;;;;;;;10.41;75.61;101642.25;1687115;84;21208;-47
2020/12/28 08:03:23;;;;;;;23.90;12.68;;;;;;;10.44;75.57;101645.73;1689736;84;21583;-46
2020/12/28 08:05:52;;;;;;;22.65;11.65;;;;;;;10.47;75.61;101637.00;1697990;84;21735;-47
2020/12/28 08:08:23;;;;;;;26.50;12.28;;;;;;;10.49;75.64;101630.05;1687331;84;21164;-47
2020/12/28 08:10:54;;;;;;;23.10;12.13;;;;;;;10.52;75.71;101622.23;1642804;85;21208;-48
2020/12/28 08:13:28;;;;;;;23.30;12.70;;;;;;;10.52;75.62;101624.84;1646252;86;21652;-46
2020/12/28 08:16:12;;;;;;;22.30;12.37;;;;;;;10.57;75.63;101623.08;1757012;79;23074;-46
2020/12/28 08:18:53;;;;;;;32.60;13.95;;;;;;;10.54;75.63;101625.69;1679862;83;21289;-47
2020/12/28 08:21:24;;;;;;;25.40;12.70;;;;;;;10.56;75.58;101626.54;1684666;85;21164;-48
2020/12/28 08:23:56;;;;;;;22.90;10.85;;;;;;;10.58;75.49;101627.39;1675250;85;21128;-48
2020/12/28 08:26:29;;;;;;;26.48;13.18;;;;;;;10.61;75.48;101623.02;1788742;79;28742;-47
2020/12/28 08:29:00;;;;;;;31.82;13.00;;;;;;;10.63;75.50;101629.53;1771339;80;21136;-47
2020/12/28 08:31:36;;;;;;;29.37;14.30;;;;;;;10.72;75.32;101647.66;1750171;81;21584;-47
2020/12/28 08:34:12;;;;;;;29.90;12.75;;;;;;;10.76;75.24;101636.34;1745085;82;21378;-47
2020/12/28 08:36:44;;;;;;;24.20;11.78;;;;;;;10.81;75.09;101617.66;1738025;81;21199;-47
2020/12/28 08:39:15;;;;;;;33.45;13.38;;;;;;;10.87;75.08;101622.80;1742620;82;21688;-47
2020/12/28 08:41:56;;;;;;;31.82;12.18;;;;;;;10.90;74.96;101617.55;1748717;82;21573;-46
2020/12/28 08:44:32;;;;;;;33.02;13.35;;;;;;;10.92;74.78;101613.20;1744893;82;21204;-46
2020/12/28 08:47:07;;;;;;;37.42;14.13;;;;;;;10.93;74.91;101607.13;1737822;82;21200;-47
2020/12/28 08:49:36;;;;;;;41.48;16.12;;;;;;;10.96;74.72;101613.62;1747762;82;21254;-47
2020/12/28 08:52:14;;;;;;;49.70;18.12;;;;;;;10.97;74.44;101619.23;1730884;82;21140;-46
2020/12/28 08:55:00;;;;;;;45.20;15.70;;;;;;;10.99;74.24;101620.08;1817954;78;22934;-48
2020/12/28 08:57:29;;;;;;;;;;;;;;;10.94;74.24;101621.86;1794587;80;21148;-48
2020/12/28 09:00:00;;;;;;;45.40;16.12;;;;;;;10.93;74.37;101613.63;1792685;80;20124;-47
2020/12/28 09:02:28;;;;;;;41.18;16.93;;;;;;;10.95;74.28;101600.16;1725748;83;21582;-47
2020/12/28 09:04:57;;;;;;;39.70;15.95;;;;;;;10.94;74.23;101601.02;1749271;81;21133;-47
2020/12/28 09:07:25;;;;;;;43.05;16.35;;;;;;;10.94;74.00;101588.47;1716605;81;21157;-46
2020/12/28 09:09:55;;;;;;;37.85;15.68;;;;;;;10.94;74.13;101582.80;1713460;83;21134;-47
2020/12/28 09:12:24;;;;;;;44.80;17.42;;;;;;;10.96;74.08;101581.06;1727708;82;21625;-47
2020/12/28 09:14:52;;;;;;;34.80;13.78;;;;;;;10.99;74.12;101586.23;1725875;83;21840;-47
2020/12/28 09:17:21;;;;;;;36.05;14.65;;;;;;;11.01;74.10;101581.87;1728013;81;21144;-47
2020/12/28 09:19:49;;;;;;;34.55;14.43;;;;;;;11.03;74.04;101576.20;1721392;81;21278;-47
2020/12/28 09:22:18;;;;;;;23.42;12.30;;;;;;;11.06;74.16;101565.77;1719382;83;21181;-48
2020/12/28 09:24:46;;;;;;;23.80;13.18;;;;;;;11.10;74.22;101563.55;1748420;81;21156;-47
2020/12/28 09:27:15;;;;;;;21.95;11.93;;;;;;;11.11;74.15;101543.55;1736355;81;21154;-47
2020/12/28 09:29:43;;;;;;;26.70;11.80;;;;;;;11.13;74.16;101533.55;1712627;83;21214;-47
2020/12/28 09:32:11;;;;;;;28.45;11.93;;;;;;;11.14;74.30;101531.38;1750718;81;21113;-46
2020/12/28 09:34:40;;;;;;;30.23;13.03;;;;;;;11.15;74.35;101530.48;1713232;83;21184;-48
2020/12/28 09:37:09;;;;;;;33.38;13.68;;;;;;;11.15;74.25;101530.48;1728050;82;21216;-47
2020/12/28 09:39:37;;;;;;;24.75;11.68;;;;;;;11.15;74.12;101525.27;1752142;81;21164;-48
2020/12/28 09:42:05;;;;;;;33.25;13.58;;;;;;;11.17;74.07;101526.11;1722633;83;21219;-47
2020/12/28 09:44:34;;;;;;;30.20;13.08;;;;;;;11.16;73.93;101523.11;1712963;83;21286;-48
2020/12/28 09:47:02;;;;;;;27.52;12.37;;;;;;;11.16;74.02;101529.62;1734010;81;21124;-47
2020/12/28 09:49:30;;;;;;;29.50;12.47;;;;;;;11.16;74.05;101529.62;1705698;83;21144;-47
2020/12/28 09:51:59;;;;;;;35.70;15.65;;;;;;;11.17;73.94;101544.34;1741589;82;21274;-48
2020/12/28 09:54:28;;;;;;;39.65;15.95;;;;;;;11.16;73.68;101551.76;1709150;82;21182;-47
2020/12/28 09:57:03;;;;;;;44.20;17.07;;;;;;;11.12;73.69;101543.56;1771215;80;21571;-48
2020/12/28 09:59:29;;;;;;;;;;;;;;;11.15;73.50;101550.45;1708477;84;21291;-47
2020/12/28 10:01:58;;;;;;;40.60;16.32;;;;;;;11.13;73.40;101560.89;1711828;82;20232;-47
2020/12/28 10:04:27;;;;;;;40.92;15.40;;;;;;;11.12;73.48;101546.16;1726633;82;21151;-48
2020/12/28 10:06:56;;;;;;;33.90;14.15;;;;;;;11.13;73.48;101533.55;1776756;80;21124;-48
2020/12/28 10:09:24;;;;;;;29.10;13.05;;;;;;;11.14;73.58;101519.66;1777708;80;21172;-47
2020/12/28 10:11:52;;;;;;;30.80;13.32;;;;;;;11.17;73.64;101510.48;1771467;80;21132;-47
2020/12/28 10:14:22;;;;;;;32.15;13.88;;;;;;;11.19;73.68;101508.72;1768484;80;21168;-47
2020/12/28 10:16:51;;;;;;;39.38;16.12;;;;;;;11.18;73.54;101514.83;1770734;80;21140;-47
2020/12/28 10:19:19;;;;;;;42.45;18.05;;;;;;;11.17;73.31;101520.91;1703398;84;21719;-48
2020/12/28 10:21:49;;;;;;;46.45;17.35;;;;;;;11.15;73.29;101507.03;1770014;80;21132;-47
2020/12/28 10:24:17;;;;;;;37.48;15.15;;;;;;;11.15;73.20;101497.92;1707275;83;21180;-48
2020/12/28 10:26:51;;;;;;;28.65;13.55;;;;;;;11.14;73.14;101488.40;1771161;80;21144;-47
2020/12/28 10:29:20;;;;;;;34.30;13.58;;;;;;;11.15;73.23;101482.30;1708113;84;21183;-48
2020/12/28 10:31:49;;;;;;;28.55;12.03;;;;;;;11.15;73.43;101473.17;1778860;80;21136;-48
2020/12/28 10:34:18;;;;;;;27.20;12.95;;;;;;;11.17;73.48;101467.97;1773010;80;21287;-49
2020/12/28 10:36:46;;;;;;;35.75;14.47;;;;;;;11.18;73.60;101465.34;1763968;80;21184;-47
2020/12/28 10:39:14;;;;;;;38.13;13.40;;;;;;;11.20;73.75;101471.39;1762373;80;21115;-47
2020/12/28 10:41:43;;;;;;;38.50;14.03;;;;;;;11.23;73.66;101467.89;1768643;80;21148;-47
2020/12/28 10:44:11;;;;;;;29.87;13.10;;;;;;;11.25;73.43;101468.27;1775861;80;21188;-48
2020/12/28 10:46:41;;;;;;;42.20;15.58;;;;;;;11.25;73.51;101460.91;1773200;80;21719;-48
2020/12/28 10:49:09;;;;;;;38.55;16.77;;;;;;;11.26;73.54;101463.49;1767091;80;21161;-49
2020/12/28 10:51:37;;;;;;;33.20;13.48;;;;;;;11.25;73.54;101457.84;1768609;80;21181;-48
2020/12/28 10:54:06;;;;;;;32.33;13.78;;;;;;;11.26;73.67;101452.20;1764530;80;21195;-48
2020/12/28 10:56:34;;;;;;;30.30;15.13;;;;;;;11.28;73.60;101451.30;1750645;82;21104;-48
2020/12/28 10:59:03;;;;;;;35.28;15.75;;;;;;;11.27;73.65;101450.87;1746781;82;21136;-48
2020/12/28 11:01:31;;;;;;;38.35;16.17;;;;;;;11.28;73.59;101458.25;1752128;82;21148;-48
2020/12/28 11:04:00;;;;;;;34.40;16.07;;;;;;;11.27;73.49;101457.38;1750551;82;21136;-49
2020/12/28 11:06:28;;;;;;;37.60;15.13;;;;;;;11.30;73.19;101465.17;1746351;82;21185;-47
2020/12/28 11:08:57;;;;;;;43.00;16.75;;;;;;;11.25;73.16;101459.15;1750114;82;21176;-47
2020/12/28 11:11:25;;;;;;;30.92;14.68;;;;;;;11.22;73.01;101446.17;1750092;82;21157;-47
2020/12/28 11:13:54;;;;;;;30.80;16.37;;;;;;;11.24;73.07;101440.50;1747427;82;21656;-47
2020/12/28 11:16:26;;;;;;;39.13;16.12;;;;;;;11.24;73.19;101436.59;1752552;82;21681;-48
2020/12/28 11:18:55;;;;;;;29.18;14.90;;;;;;;11.24;73.15;101441.81;1748795;80;21140;-48
2020/12/28 11:21:24;;;;;;;28.98;14.10;;;;;;;11.22;73.16;101446.17;1751214;82;21287;-47
2020/12/28 11:24:02;;;;;;;40.75;17.02;;;;;;;11.18;73.48;101443.63;1751917;82;21140;-48
2020/12/28 11:26:33;;;;;;;36.03;16.15;;;;;;;11.17;73.57;101442.76;1751066;82;21148;-48
2020/12/28 11:29:03;;;;;;;29.53;14.03;;;;;;;11.18;73.52;101434.08;1748370;82;21184;-48
2020/12/28 11:31:31;;;;;;;36.73;14.65;;;;;;;11.20;73.42;101429.70;1746210;82;21152;-49
2020/12/28 11:34:00;;;;;;;33.20;14.98;;;;;;;11.23;73.42;101431.42;1750308;82;21161;-48
2020/12/28 11:36:28;;;;;;;30.35;14.15;;;;;;;11.24;73.46;101449.63;1745753;82;21271;-47
2020/12/28 11:38:57;;;;;;;32.80;14.13;;;;;;;11.25;73.42;101438.30;1747775;82;21183;-47
2020/12/28 11:41:27;;;;;;;36.35;14.87;;;;;;;11.26;73.38;101441.78;1750266;82;21156;-48